createdAt,value
2022-12-19T00:00:29.356Z,16.50
2022-12-19T00:02:04.377Z,17.65
2022-12-19T00:03:37.815Z,14.25
2022-12-19T00:05:11.144Z,16.60
2022-12-19T00:06:44.425Z,16.25
2022-12-19T00:08:17.815Z,14.77
2022-12-19T00:09:51.207Z,15.70
2022-12-19T00:11:25.177Z,15.93
2022-12-19T00:12:59.150Z,17.75
2022-12-19T00:14:33.486Z,17.40
2022-12-19T00:16:09.949Z,17.85
2022-12-19T00:17:43.576Z,17.20
2022-12-19T00:19:16.768Z,15.95
2022-12-19T00:20:57.490Z,16.63
2022-12-19T00:22:30.560Z,18.40
2022-12-19T00:24:08.132Z,17.05
2022-12-19T00:25:54.597Z,19.27
2022-12-19T00:27:28.428Z,15.00
2022-12-19T00:29:03.837Z,17.48
2022-12-19T00:30:35.973Z,16.42
2022-12-19T00:32:09.276Z,18.02
2022-12-19T00:33:47.667Z,17.88
2022-12-19T00:35:20.779Z,17.25
2022-12-19T00:36:52.872Z,16.23
2022-12-19T00:38:27.731Z,15.05
2022-12-19T00:39:59.894Z,17.48
2022-12-19T00:41:36.282Z,18.48
2022-12-19T00:43:08.605Z,17.63
2022-12-19T00:44:41.666Z,14.82
2022-12-19T00:46:16.628Z,15.70
2022-12-19T00:49:23.243Z,15.35
2022-12-19T00:51:00.432Z,16.95
2022-12-19T00:52:33.667Z,14.90
2022-12-19T00:54:07.422Z,17.88
2022-12-19T00:55:41.230Z,17.63
2022-12-19T00:57:15.572Z,14.93
2022-12-19T00:58:49.576Z,16.40
2022-12-19T01:00:22.881Z,16.45
2022-12-19T01:01:56.452Z,19.20
2022-12-19T01:03:30.751Z,15.23
2022-12-19T01:05:06.825Z,18.17
2022-12-19T01:06:40.101Z,17.10
2022-12-19T01:08:13.344Z,16.45
2022-12-19T01:09:46.478Z,17.27
2022-12-19T01:11:41.591Z,16.00
2022-12-19T01:13:14.216Z,16.08
2022-12-19T01:14:46.760Z,14.38
2022-12-19T01:16:20.064Z,17.08
2022-12-19T01:17:54.224Z,18.02
2022-12-19T01:19:28.815Z,14.05
2022-12-19T01:21:06.903Z,14.10
2022-12-19T01:22:39.156Z,15.52
2022-12-19T01:24:12.606Z,16.27
2022-12-19T01:25:54.553Z,15.55
2022-12-19T01:27:29.029Z,19.20
2022-12-19T01:29:01.270Z,17.92
2022-12-19T01:30:35.949Z,15.23
2022-12-19T01:32:11.521Z,15.50
2022-12-19T01:33:44.728Z,17.88
2022-12-19T01:35:21.327Z,14.75
2022-12-19T01:36:55.866Z,16.08
2022-12-19T01:38:29.024Z,18.35
2022-12-19T01:40:01.511Z,16.38
2022-12-19T01:41:35.574Z,14.00
2022-12-19T01:43:17.392Z,14.18
2022-12-19T01:45:33.745Z,16.17
2022-12-19T01:47:14.608Z,14.30
2022-12-19T01:48:48.023Z,14.85
2022-12-19T01:50:26.587Z,14.93
2022-12-19T01:52:07.182Z,16.17
2022-12-19T01:53:48.895Z,14.35
2022-12-19T01:55:22.187Z,16.00
2022-12-19T01:57:00.531Z,16.80
2022-12-19T01:58:34.328Z,16.30
2022-12-19T02:00:15.949Z,15.57
2022-12-19T02:01:51.665Z,14.60
2022-12-19T02:03:32.759Z,15.20
2022-12-19T02:05:07.588Z,15.85
2022-12-19T02:06:43.394Z,13.20
2022-12-19T02:08:18.205Z,14.90
2022-12-19T02:09:56.620Z,17.38
2022-12-19T02:11:36.613Z,13.68
2022-12-19T02:13:11.828Z,16.55
2022-12-19T02:14:45.756Z,13.95
2022-12-19T02:16:35.762Z,15.43
2022-12-19T02:18:24.942Z,14.77
2022-12-19T02:20:48.677Z,15.20
2022-12-19T02:22:37.670Z,13.45
2022-12-19T02:24:57.811Z,14.18
2022-12-19T02:26:59.864Z,14.60
2022-12-19T02:29:01.491Z,15.52
2022-12-19T02:31:00.884Z,14.20
2022-12-19T02:32:58.833Z,14.13
2022-12-19T02:34:44.403Z,14.90
2022-12-19T02:36:23.255Z,16.35
2022-12-19T02:38:13.288Z,18.40
2022-12-19T02:39:55.384Z,15.82
2022-12-19T02:41:43.072Z,14.90
2022-12-19T02:43:23.391Z,13.52
2022-12-19T02:45:00.750Z,16.63
2022-12-19T02:46:36.163Z,15.77
2022-12-19T02:48:12.264Z,14.90
2022-12-19T02:49:47.686Z,12.77
2022-12-19T02:51:21.068Z,14.82
2022-12-19T02:52:53.368Z,15.43
2022-12-19T02:54:27.096Z,15.23
2022-12-19T02:56:37.418Z,14.38
2022-12-19T02:58:40.648Z,14.43
2022-12-19T03:00:20.654Z,15.57
2022-12-19T03:02:04.150Z,11.93
2022-12-19T03:03:54.759Z,13.23
2022-12-19T03:05:37.464Z,14.82
2022-12-19T03:07:25.688Z,13.10
2022-12-19T03:09:08.256Z,14.70
2022-12-19T03:10:48.691Z,12.18
2022-12-19T03:12:29.343Z,15.65
2022-12-19T03:15:41.417Z,14.18
2022-12-19T03:17:20.392Z,14.25
2022-12-19T03:18:54.566Z,10.82
2022-12-19T03:20:40.465Z,13.07
2022-12-19T03:22:13.826Z,12.68
2022-12-19T03:23:47.191Z,14.13
2022-12-19T03:25:24.098Z,11.43
2022-12-19T03:27:03.600Z,13.57
2022-12-19T03:28:44.061Z,12.50
2022-12-19T03:30:18.783Z,12.80
2022-12-19T03:31:54.816Z,12.85
2022-12-19T03:33:33.781Z,13.98
2022-12-19T03:35:13.000Z,12.35
2022-12-19T03:36:52.456Z,11.25
2022-12-19T03:38:27.794Z,12.15
2022-12-19T03:40:07.639Z,13.77
2022-12-19T03:42:02.985Z,13.55
2022-12-19T03:43:37.033Z,12.30
2022-12-19T03:45:12.495Z,11.32
2022-12-19T03:46:55.306Z,10.45
2022-12-19T03:48:36.029Z,10.75
2022-12-19T03:50:09.846Z,12.70
2022-12-19T03:51:59.199Z,12.07
2022-12-19T03:53:47.894Z,13.65
2022-12-19T03:55:34.604Z,10.43
2022-12-19T03:57:17.307Z,13.10
2022-12-19T03:59:02.930Z,12.77
2022-12-19T04:00:39.139Z,11.85
2022-12-19T04:02:16.297Z,14.00
2022-12-19T04:03:51.667Z,13.38
2022-12-19T04:05:28.912Z,14.10
2022-12-19T04:07:03.730Z,14.50
2022-12-19T04:08:36.837Z,14.98
2022-12-19T04:10:15.895Z,13.68
2022-12-19T04:11:55.467Z,13.73
2022-12-19T04:13:36.909Z,11.05
2022-12-19T04:15:11.835Z,12.38
2022-12-19T04:18:25.334Z,13.02
2022-12-19T04:20:05.923Z,14.40
2022-12-19T04:23:23.924Z,12.60
2022-12-19T04:25:00.162Z,12.52
2022-12-19T04:26:39.335Z,15.85
2022-12-19T04:28:18.540Z,16.35
2022-12-19T04:29:56.916Z,14.57
2022-12-19T04:31:30.200Z,12.43
2022-12-19T04:33:03.352Z,13.32
2022-12-19T04:34:40.098Z,15.43
2022-12-19T04:36:17.579Z,15.23
2022-12-19T04:37:50.765Z,11.50
2022-12-19T04:39:23.956Z,15.30
2022-12-19T04:40:58.145Z,16.23
2022-12-19T04:42:31.284Z,13.75
2022-12-19T04:44:04.749Z,13.48
2022-12-19T04:45:38.013Z,13.50
2022-12-19T04:47:12.048Z,14.65
2022-12-19T04:48:45.243Z,14.07
2022-12-19T04:50:17.847Z,13.70
2022-12-19T04:51:52.316Z,14.48
2022-12-19T04:53:25.460Z,15.70
2022-12-19T04:54:58.954Z,13.20
2022-12-19T04:56:32.125Z,14.43
2022-12-19T04:58:06.721Z,14.77
2022-12-19T04:59:39.837Z,13.98
2022-12-19T05:01:14.300Z,14.57
2022-12-19T05:02:47.802Z,12.82
2022-12-19T05:04:21.661Z,11.98
2022-12-19T05:05:53.999Z,14.93
2022-12-19T05:07:28.618Z,13.13
2022-12-19T05:09:02.143Z,13.23
2022-12-19T05:10:37.403Z,13.38
2022-12-19T05:13:44.052Z,12.45
2022-12-19T05:15:17.521Z,12.52
2022-12-19T05:16:50.051Z,12.90
2022-12-19T05:18:23.267Z,12.38
2022-12-19T05:19:56.590Z,10.77
2022-12-19T05:21:29.841Z,12.77
2022-12-19T05:23:09.615Z,12.70
2022-12-19T05:24:48.628Z,11.98
2022-12-19T05:26:22.318Z,11.50
2022-12-19T05:27:55.582Z,12.85
2022-12-19T05:29:29.009Z,12.48
2022-12-19T05:31:07.175Z,12.80
2022-12-19T05:32:40.418Z,11.73
2022-12-19T05:34:13.659Z,12.18
2022-12-19T05:35:46.913Z,12.10
2022-12-19T05:37:22.320Z,16.90
2022-12-19T05:38:56.983Z,12.82
2022-12-19T05:40:30.388Z,12.82
2022-12-19T05:42:02.753Z,11.85
2022-12-19T05:43:36.063Z,12.80
2022-12-19T05:45:10.337Z,12.60
2022-12-19T05:46:43.627Z,11.27
2022-12-19T05:48:16.265Z,13.50
2022-12-19T05:49:49.538Z,10.98
2022-12-19T05:51:22.264Z,12.45
2022-12-19T05:52:55.509Z,9.95
2022-12-19T05:54:30.302Z,11.20
2022-12-19T05:56:05.021Z,11.50
2022-12-19T05:57:38.588Z,11.88
2022-12-19T05:59:12.175Z,12.05
2022-12-19T06:00:45.389Z,12.10
2022-12-19T06:02:18.704Z,11.23
2022-12-19T06:03:53.704Z,11.43
2022-12-19T06:05:27.463Z,10.07
2022-12-19T06:07:00.955Z,11.23
2022-12-19T06:08:34.805Z,10.48
2022-12-19T06:10:10.032Z,11.15
2022-12-19T06:11:43.469Z,10.20
2022-12-19T06:13:17.037Z,10.65
2022-12-19T06:14:53.051Z,11.82
2022-12-19T06:16:26.398Z,9.25
2022-12-19T06:18:00.130Z,11.68
2022-12-19T06:19:33.276Z,8.93
2022-12-19T06:21:09.061Z,9.00
2022-12-19T06:22:42.498Z,8.52
2022-12-19T06:24:16.094Z,9.05
2022-12-19T06:25:50.684Z,8.60
2022-12-19T06:27:23.970Z,8.35
2022-12-19T06:29:01.078Z,8.80
2022-12-19T06:30:34.352Z,8.95
2022-12-19T06:32:08.688Z,6.97
2022-12-19T06:33:42.461Z,6.47
2022-12-19T06:35:15.799Z,7.57
2022-12-19T06:36:49.072Z,9.30
2022-12-19T06:38:22.174Z,6.90
2022-12-19T06:39:55.510Z,7.22
2022-12-19T06:41:47.759Z,6.97
2022-12-19T06:43:19.972Z,7.20
2022-12-19T06:44:56.149Z,6.45
2022-12-19T06:46:29.821Z,7.45
2022-12-19T06:48:05.589Z,7.38
2022-12-19T06:49:38.927Z,8.50
2022-12-19T06:51:13.770Z,7.47
2022-12-19T06:52:47.110Z,6.80
2022-12-19T06:54:20.549Z,6.45
2022-12-19T06:55:58.156Z,6.68
2022-12-19T06:57:32.848Z,7.53
2022-12-19T06:59:06.059Z,6.25
2022-12-19T07:00:39.337Z,7.10
2022-12-19T07:02:29.242Z,8.68
2022-12-19T07:04:02.960Z,7.72
2022-12-19T07:05:36.839Z,7.82
2022-12-19T07:07:10.288Z,6.20
2022-12-19T07:08:44.221Z,8.05
2022-12-19T07:10:17.912Z,7.40
2022-12-19T07:11:51.265Z,8.80
2022-12-19T07:13:27.455Z,7.20
2022-12-19T07:15:00.770Z,7.53
2022-12-19T07:16:34.316Z,8.55
2022-12-19T07:18:10.365Z,8.40
2022-12-19T07:19:43.752Z,8.13
2022-12-19T07:21:17.155Z,8.27
2022-12-19T07:22:50.827Z,7.35
2022-12-19T07:24:24.840Z,6.75
2022-12-19T07:25:59.234Z,8.68
2022-12-19T07:27:35.896Z,7.47
2022-12-19T07:29:12.842Z,8.07
2022-12-19T07:30:46.320Z,7.55
2022-12-19T07:32:22.708Z,6.80
2022-12-19T07:33:55.901Z,7.15
2022-12-19T07:35:29.284Z,8.07
2022-12-19T07:37:02.539Z,9.98
2022-12-19T07:38:36.339Z,8.10
2022-12-19T07:40:11.968Z,7.35
2022-12-19T07:41:45.234Z,8.10
2022-12-19T07:43:18.956Z,9.43
2022-12-19T07:44:54.955Z,9.93
2022-12-19T07:46:30.848Z,8.68
2022-12-19T07:48:06.182Z,10.20
2022-12-19T07:49:40.058Z,10.32
2022-12-19T07:51:13.528Z,10.57
2022-12-19T07:52:47.099Z,8.63
2022-12-19T07:54:20.440Z,11.27
2022-12-19T07:55:54.128Z,9.65
2022-12-19T07:57:27.583Z,11.80
2022-12-19T07:59:00.902Z,12.13
2022-12-19T08:00:35.866Z,10.70
2022-12-19T08:02:09.415Z,11.55
2022-12-19T08:03:44.162Z,11.05
2022-12-19T08:05:19.154Z,9.60
2022-12-19T08:06:52.710Z,13.07
2022-12-19T08:08:26.941Z,10.52
2022-12-19T08:10:02.060Z,12.07
2022-12-19T08:11:35.712Z,10.55
2022-12-19T08:13:09.175Z,11.50
2022-12-19T08:14:43.911Z,11.73
2022-12-19T08:16:18.482Z,12.50
2022-12-19T08:17:51.691Z,12.52
2022-12-19T08:19:29.705Z,9.20
2022-12-19T08:21:02.936Z,10.05
2022-12-19T08:22:36.332Z,10.38
2022-12-19T08:24:09.800Z,10.93
2022-12-19T08:25:44.017Z,13.35
2022-12-19T08:27:17.484Z,11.80
2022-12-19T08:28:50.871Z,10.60
2022-12-19T08:30:24.500Z,12.45
2022-12-19T08:31:59.308Z,12.85
2022-12-19T08:33:32.810Z,11.65
2022-12-19T08:35:08.220Z,8.60
2022-12-19T08:36:42.500Z,12.13
2022-12-19T08:38:15.821Z,9.70
2022-12-19T08:39:49.256Z,13.55
2022-12-19T08:41:23.269Z,11.02
2022-12-19T08:42:56.965Z,11.98
2022-12-19T08:44:30.946Z,11.18
2022-12-19T08:46:04.155Z,13.55
2022-12-19T08:47:38.797Z,11.63
2022-12-19T08:49:12.165Z,12.10
2022-12-19T08:50:52.770Z,9.50
2022-12-19T08:52:26.318Z,11.02
2022-12-19T08:53:59.626Z,11.50
2022-12-19T08:55:35.370Z,11.05
2022-12-19T08:57:09.449Z,11.75
2022-12-19T08:58:44.213Z,11.10
2022-12-19T09:00:19.059Z,11.45
2022-12-19T09:01:53.315Z,12.50
2022-12-19T09:03:32.065Z,12.45
2022-12-19T09:06:03.922Z,10.73
2022-12-19T09:07:21.969Z,11.45
2022-12-19T09:09:00.284Z,10.05
2022-12-19T09:10:36.896Z,10.25
2022-12-19T09:12:10.204Z,11.95
2022-12-19T09:13:45.036Z,11.63
2022-12-19T09:15:18.658Z,11.18
2022-12-19T09:16:52.064Z,11.57
2022-12-19T09:18:26.825Z,10.80
2022-12-19T09:19:59.937Z,11.25
2022-12-19T09:21:33.136Z,13.90
2022-12-19T09:23:06.867Z,11.00
2022-12-19T09:24:40.380Z,13.77
2022-12-19T09:26:15.106Z,11.70
2022-12-19T09:28:25.641Z,11.27
2022-12-19T09:29:42.354Z,10.70
2022-12-19T09:31:19.869Z,11.55
2022-12-19T09:32:53.266Z,12.23
2022-12-19T09:34:37.669Z,10.88
2022-12-19T09:36:15.490Z,11.02
2022-12-19T09:37:48.948Z,12.55
2022-12-19T09:39:22.828Z,12.20
2022-12-19T09:41:37.400Z,10.35
2022-12-19T09:43:17.073Z,12.10
2022-12-19T09:45:14.622Z,11.55
2022-12-19T09:47:03.260Z,11.80
2022-12-19T09:48:36.768Z,10.88
2022-12-19T09:50:31.309Z,10.80
2022-12-19T09:52:19.349Z,11.15
2022-12-19T09:54:05.204Z,9.65
2022-12-19T09:55:42.637Z,13.25
2022-12-19T09:57:25.086Z,12.40
2022-12-19T09:59:07.986Z,11.05
2022-12-19T10:01:00.045Z,11.15
2022-12-19T10:02:45.272Z,12.40
2022-12-19T10:04:22.001Z,16.13
2022-12-19T10:07:11.069Z,13.00
2022-12-19T10:08:10.704Z,10.45
2022-12-19T10:12:24.886Z,11.80
2022-12-19T10:12:47.286Z,12.57
2022-12-19T10:14:16.030Z,14.77
2022-12-19T10:16:00.981Z,16.52
2022-12-19T10:18:00.142Z,15.15
2022-12-19T10:19:47.980Z,14.25
2022-12-19T10:24:22.476Z,17.95
2022-12-19T10:26:05.867Z,24.20
2022-12-19T10:27:58.489Z,14.15
2022-12-19T10:30:03.916Z,22.35
2022-12-19T10:31:45.202Z,22.80
2022-12-19T10:33:36.132Z,22.05
2022-12-19T10:35:16.591Z,50.15
2022-12-19T10:37:29.043Z,25.13
2022-12-19T10:39:04.775Z,16.13
2022-12-19T10:40:46.803Z,21.98
2022-12-19T10:42:34.053Z,71.25
2022-12-19T10:44:10.528Z,62.25
2022-12-19T10:45:49.086Z,25.88
2022-12-19T10:47:22.456Z,18.02
2022-12-19T10:48:56.031Z,58.88
2022-12-19T10:50:31.921Z,23.67
2022-12-19T10:52:09.797Z,15.70
2022-12-19T10:53:54.028Z,14.00
2022-12-19T10:55:43.870Z,20.85
2022-12-19T10:57:26.236Z,16.42
2022-12-19T10:59:01.339Z,17.38
2022-12-19T11:00:36.426Z,15.38
2022-12-19T11:02:36.589Z,67.47
2022-12-19T11:04:27.802Z,62.08
2022-12-19T11:06:03.785Z,19.05
2022-12-19T11:07:38.464Z,16.70
2022-12-19T11:09:29.141Z,24.25
2022-12-19T11:13:17.368Z,33.40
2022-12-19T11:19:28.573Z,21.70
2022-12-19T11:19:46.014Z,15.23
2022-12-19T11:24:10.761Z,13.15
2022-12-19T11:29:18.091Z,151.45
2022-12-19T11:29:31.089Z,37.63
2022-12-19T11:30:38.644Z,57.78
2022-12-19T11:30:40.818Z,147.07
2022-12-19T11:30:46.256Z,52.67
2022-12-19T11:33:33.885Z,33.65
2022-12-19T11:35:22.772Z,63.25
2022-12-19T11:37:17.828Z,73.72
2022-12-19T11:38:55.692Z,65.05
2022-12-19T11:40:39.410Z,57.13
2022-12-19T11:42:26.715Z,87.40
2022-12-19T11:44:09.465Z,38.78
2022-12-19T11:45:57.052Z,34.83
2022-12-19T11:47:39.471Z,22.73
2022-12-19T11:49:26.657Z,21.55
2022-12-19T11:51:15.728Z,14.32
2022-12-19T11:53:06.608Z,14.63
2022-12-19T11:54:58.206Z,12.65
2022-12-19T11:56:32.232Z,9.52
2022-12-19T11:58:06.059Z,10.95
2022-12-19T11:59:41.974Z,10.02
2022-12-19T12:01:39.172Z,8.80
2022-12-19T12:03:55.883Z,10.02
2022-12-19T12:05:46.427Z,9.30
2022-12-19T12:08:40.394Z,10.07
2022-12-19T12:12:37.194Z,9.57
2022-12-19T12:19:16.341Z,12.63
2022-12-19T12:24:58.638Z,10.30
2022-12-19T12:30:59.507Z,11.38
2022-12-19T12:31:05.151Z,10.48
2022-12-19T12:31:28.411Z,7.93
2022-12-19T12:31:42.405Z,12.88
2022-12-19T12:31:44.953Z,7.20
2022-12-19T12:32:03.002Z,8.15
2022-12-19T12:32:05.788Z,7.82
2022-12-19T12:35:32.682Z,8.48
2022-12-19T12:39:52.852Z,8.02
2022-12-19T12:41:59.761Z,11.27
2022-12-19T12:44:02.233Z,8.95
2022-12-19T12:45:40.081Z,10.80
2022-12-19T12:47:20.225Z,10.02
2022-12-19T12:49:02.830Z,8.48
2022-12-19T12:50:41.947Z,9.00
2022-12-19T12:52:22.001Z,9.02
2022-12-19T12:54:04.980Z,7.65
2022-12-19T12:55:42.814Z,8.73
2022-12-19T12:57:33.878Z,8.60
2022-12-19T12:59:25.048Z,8.15
2022-12-19T13:01:10.845Z,9.88
2022-12-19T13:02:53.809Z,7.75
2022-12-19T13:04:35.549Z,8.88
2022-12-19T13:06:26.930Z,8.60
2022-12-19T13:08:00.355Z,8.77
2022-12-19T13:09:37.616Z,9.18
2022-12-19T13:11:52.105Z,8.48
2022-12-19T13:13:55.555Z,7.68
2022-12-19T13:15:44.468Z,8.07
2022-12-19T13:18:02.526Z,8.98
2022-12-19T13:19:39.340Z,9.00
2022-12-19T13:21:12.875Z,7.25
2022-12-19T13:23:06.190Z,8.25
2022-12-19T13:24:43.232Z,8.27
2022-12-19T13:26:52.318Z,8.38
2022-12-19T13:28:49.712Z,7.82
2022-12-19T13:30:22.957Z,8.00
2022-12-19T13:32:14.498Z,9.07
2022-12-19T13:34:11.316Z,8.60
2022-12-19T13:36:51.070Z,8.52
2022-12-19T13:39:48.493Z,8.48
2022-12-19T13:39:59.626Z,8.32
2022-12-19T13:42:27.937Z,7.93
2022-12-19T13:44:01.634Z,6.32
2022-12-19T13:45:35.135Z,7.95
2022-12-19T13:47:20.308Z,8.00
2022-12-19T13:49:04.683Z,6.40
2022-12-19T13:50:42.008Z,8.48
2022-12-19T13:52:15.221Z,7.45
2022-12-19T13:53:59.947Z,6.75
2022-12-19T13:55:33.719Z,7.70
2022-12-19T13:57:24.205Z,7.32
2022-12-19T13:59:02.264Z,7.82
2022-12-19T14:00:43.040Z,7.65
2022-12-19T14:02:27.954Z,9.02
2022-12-19T14:04:08.917Z,8.57
2022-12-19T14:06:17.115Z,8.10
2022-12-19T14:07:42.236Z,9.02
2022-12-19T14:11:33.117Z,7.07
2022-12-19T14:11:35.206Z,7.15
2022-12-19T14:13:52.316Z,6.45
2022-12-19T14:15:38.953Z,5.43
2022-12-19T14:17:16.087Z,6.38
2022-12-19T14:18:50.624Z,10.32
2022-12-19T14:22:07.853Z,6.35
2022-12-19T14:22:26.774Z,7.70
2022-12-19T14:24:12.729Z,7.05
2022-12-19T14:28:25.425Z,6.55
2022-12-19T14:28:26.678Z,6.57
2022-12-19T14:30:27.815Z,7.72
2022-12-19T14:33:05.741Z,6.60
2022-12-19T14:34:11.000Z,6.60
2022-12-19T14:36:10.095Z,6.68
2022-12-19T14:39:19.687Z,7.32
2022-12-19T14:39:41.443Z,8.18
2022-12-19T14:41:54.658Z,7.00
2022-12-19T14:44:00.497Z,7.60
2022-12-19T14:54:10.514Z,7.22
2022-12-19T14:54:14.618Z,6.35
2022-12-19T14:54:16.319Z,6.45
2022-12-19T14:54:24.920Z,7.10
2022-12-19T14:54:31.520Z,6.38
2022-12-19T14:56:03.862Z,7.07
2022-12-19T14:58:33.758Z,6.20
2022-12-19T14:59:46.265Z,6.22
2022-12-19T15:01:27.996Z,7.95
2022-12-19T15:03:13.836Z,8.10
2022-12-19T15:05:02.404Z,7.40
2022-12-19T15:07:09.333Z,8.63
2022-12-19T15:09:02.665Z,7.35
2022-12-19T15:11:08.739Z,7.00
2022-12-19T15:14:49.483Z,8.32
2022-12-19T15:14:59.023Z,6.40
2022-12-19T15:16:35.563Z,6.50
2022-12-19T15:18:23.196Z,6.00
2022-12-19T15:19:56.551Z,5.97
2022-12-19T15:21:32.181Z,8.00
2022-12-19T15:23:05.294Z,6.68
2022-12-19T15:24:38.652Z,6.80
2022-12-19T15:26:16.588Z,6.32
2022-12-19T15:27:49.806Z,5.70
2022-12-19T15:29:23.197Z,6.88
2022-12-19T15:31:02.010Z,6.70
2022-12-19T15:32:37.578Z,6.93
2022-12-19T15:34:35.040Z,5.82
2022-12-19T15:36:11.036Z,5.93
2022-12-19T15:37:46.642Z,5.65
2022-12-19T15:39:20.872Z,7.13
2022-12-19T15:40:54.058Z,6.90
2022-12-19T15:42:29.017Z,5.78
2022-12-19T15:44:10.558Z,5.25
2022-12-19T15:45:43.989Z,6.75
2022-12-19T15:47:20.624Z,7.57
2022-12-19T15:48:55.442Z,6.40
2022-12-19T15:50:32.236Z,7.45
2022-12-19T15:52:16.283Z,6.80
2022-12-19T15:53:49.619Z,5.70
2022-12-19T15:55:27.375Z,5.60
2022-12-19T15:57:00.980Z,6.38
2022-12-19T15:58:34.723Z,8.27
2022-12-19T16:00:18.412Z,6.18
2022-12-19T16:01:54.277Z,6.03
2022-12-19T16:03:29.285Z,6.28
2022-12-19T16:05:12.810Z,5.50
2022-12-19T16:06:46.378Z,6.47
2022-12-19T16:08:22.707Z,6.75
2022-12-19T16:09:56.283Z,5.40
2022-12-19T16:11:30.170Z,6.35
2022-12-19T16:13:04.645Z,7.05
2022-12-19T16:14:37.895Z,9.18
2022-12-19T16:16:15.893Z,6.30
2022-12-19T16:17:49.288Z,6.72
2022-12-19T16:19:28.122Z,4.95
2022-12-19T16:21:03.864Z,6.30
2022-12-19T16:24:12.212Z,5.50
2022-12-19T16:25:48.090Z,6.63
2022-12-19T16:27:27.589Z,5.63
2022-12-19T16:29:01.747Z,4.40
2022-12-19T16:30:37.264Z,5.15
2022-12-19T16:32:14.097Z,5.75
2022-12-19T16:33:47.535Z,6.25
2022-12-19T16:35:54.938Z,7.00
2022-12-19T16:37:19.313Z,6.40
2022-12-19T16:38:52.635Z,5.82
2022-12-19T16:40:27.930Z,7.68
2022-12-19T16:42:01.539Z,6.80
2022-12-19T16:43:41.356Z,5.63
2022-12-19T16:45:25.425Z,5.63
2022-12-19T16:46:58.757Z,6.40
2022-12-19T16:48:32.144Z,6.03
2022-12-19T16:50:15.832Z,6.13
2022-12-19T16:51:49.635Z,5.60
2022-12-19T16:53:24.225Z,4.85
2022-12-19T16:54:57.388Z,5.82
2022-12-19T16:56:35.890Z,4.70
2022-12-19T16:58:15.746Z,6.20
2022-12-19T16:59:51.145Z,7.10
2022-12-19T17:01:24.348Z,5.15
2022-12-19T17:03:10.132Z,5.10
2022-12-19T17:04:46.417Z,4.07
2022-12-19T17:06:24.863Z,5.60
2022-12-19T17:07:58.405Z,5.88
2022-12-19T17:09:32.882Z,7.25
2022-12-19T17:11:07.848Z,5.97
2022-12-19T17:12:42.715Z,5.60
2022-12-19T17:15:56.724Z,4.00
2022-12-19T17:17:30.648Z,5.40
2022-12-19T17:19:04.561Z,4.95
2022-12-19T17:20:43.099Z,4.03
2022-12-19T17:22:21.251Z,4.70
2022-12-19T17:23:54.695Z,5.72
2022-12-19T17:25:29.383Z,4.95
2022-12-19T17:27:02.574Z,5.80
2022-12-19T17:28:35.944Z,6.07
2022-12-19T17:30:11.168Z,5.07
2022-12-19T17:31:47.284Z,5.13
2022-12-19T17:33:24.000Z,5.82
2022-12-19T17:34:57.417Z,6.15
2022-12-19T17:36:37.544Z,4.68
2022-12-19T17:39:48.320Z,4.38
2022-12-19T17:41:23.274Z,7.35
2022-12-19T17:42:57.821Z,4.93
2022-12-19T17:44:31.271Z,4.40
2022-12-19T17:46:07.937Z,5.55
2022-12-19T17:47:41.801Z,5.30
2022-12-19T17:49:19.127Z,6.95
2022-12-19T17:50:54.085Z,4.07
2022-12-19T17:52:27.449Z,4.88
2022-12-19T17:54:00.748Z,4.97
2022-12-19T17:55:34.285Z,5.75
2022-12-19T17:57:13.390Z,5.80
2022-12-19T17:58:47.213Z,6.43
2022-12-19T18:00:30.406Z,4.93
2022-12-19T18:02:05.355Z,4.68
2022-12-19T18:03:39.794Z,5.03
2022-12-19T18:05:24.733Z,5.80
2022-12-19T18:06:58.197Z,4.65
2022-12-19T18:08:33.779Z,5.18
2022-12-19T18:10:16.153Z,4.40
2022-12-19T18:11:51.824Z,5.65
2022-12-19T18:13:28.899Z,5.10
2022-12-19T18:15:02.837Z,4.97
2022-12-19T18:16:36.922Z,5.22
2022-12-19T18:18:15.063Z,5.57
2022-12-19T18:19:48.348Z,6.28
2022-12-19T18:21:24.159Z,5.00
2022-12-19T18:22:58.387Z,5.32
2022-12-19T18:24:31.693Z,5.80
2022-12-19T18:26:05.176Z,5.57
2022-12-19T18:27:38.715Z,5.22
2022-12-19T18:29:13.932Z,5.93
2022-12-19T18:30:48.990Z,4.78
2022-12-19T18:32:22.986Z,5.63
2022-12-19T18:34:07.084Z,6.00
2022-12-19T18:35:43.728Z,5.35
2022-12-19T18:37:17.076Z,4.97
2022-12-19T18:38:51.432Z,5.50
2022-12-19T18:40:31.186Z,5.97
2022-12-19T18:43:52.225Z,5.40
2022-12-19T18:45:36.238Z,7.15
2022-12-19T18:47:23.207Z,8.57
2022-12-19T18:48:56.834Z,8.63
2022-12-19T18:50:32.785Z,6.63
2022-12-19T18:52:11.736Z,7.82
2022-12-19T18:53:49.804Z,7.85
2022-12-19T18:55:28.497Z,5.57
2022-12-19T18:57:01.700Z,6.97
2022-12-19T18:58:41.831Z,6.78
2022-12-19T19:00:18.372Z,6.50
2022-12-19T19:01:55.448Z,9.07
2022-12-19T19:03:35.166Z,8.23
2022-12-19T19:05:17.244Z,7.35
2022-12-19T19:06:52.646Z,8.10
2022-12-19T19:08:29.079Z,7.05
2022-12-19T19:10:24.309Z,6.63
2022-12-19T19:12:06.033Z,6.35
2022-12-19T19:13:39.376Z,5.10
2022-12-19T19:15:15.723Z,5.10
2022-12-19T19:16:49.101Z,5.97
2022-12-19T19:18:29.793Z,6.20
2022-12-19T19:20:04.862Z,5.40
2022-12-19T19:21:39.652Z,5.53
2022-12-19T19:23:22.100Z,5.90
2022-12-19T19:24:55.289Z,4.30
2022-12-19T19:26:29.290Z,4.93
2022-12-19T19:28:04.269Z,5.55
2022-12-19T19:29:38.794Z,5.20
2022-12-19T19:31:16.284Z,4.88
2022-12-19T19:32:55.541Z,5.15
2022-12-19T19:34:35.880Z,3.70
2022-12-19T19:36:16.783Z,7.25
2022-12-19T19:37:53.406Z,4.68
2022-12-19T19:39:28.504Z,5.25
2022-12-19T19:41:02.086Z,5.47
2022-12-19T19:42:35.286Z,5.32
2022-12-19T19:44:13.128Z,4.10
2022-12-19T19:45:46.820Z,5.28
2022-12-19T19:47:27.137Z,4.38
2022-12-19T19:49:00.485Z,5.75
2022-12-19T19:50:35.969Z,5.32
2022-12-19T19:52:09.390Z,6.30
2022-12-19T19:53:43.297Z,4.13
2022-12-19T19:55:16.670Z,4.57
2022-12-19T19:56:49.904Z,4.32
2022-12-19T19:58:23.249Z,3.95
2022-12-19T19:59:56.605Z,3.78
2022-12-19T20:01:30.233Z,5.22
2022-12-19T20:03:08.424Z,4.30
2022-12-19T20:04:43.158Z,7.43
2022-12-19T20:06:17.802Z,4.13
2022-12-19T20:07:51.024Z,4.35
2022-12-19T20:09:24.571Z,4.55
2022-12-19T20:11:00.143Z,5.00
2022-12-19T20:12:33.570Z,4.90
2022-12-19T20:14:06.931Z,4.68
2022-12-19T20:15:44.606Z,4.80
2022-12-19T20:17:22.635Z,3.70
2022-12-19T20:18:55.810Z,4.90
2022-12-19T20:20:29.228Z,4.53
2022-12-19T20:22:06.366Z,4.35
2022-12-19T20:25:14.058Z,3.53
2022-12-19T20:26:47.711Z,6.03
2022-12-19T20:28:21.055Z,4.13
2022-12-19T20:29:54.350Z,5.40
2022-12-19T20:31:31.121Z,4.53
2022-12-19T20:33:04.748Z,5.40
2022-12-19T20:34:38.346Z,4.63
2022-12-19T20:36:14.021Z,4.63
2022-12-19T20:37:48.679Z,4.15
2022-12-19T20:39:22.741Z,5.10
2022-12-19T20:40:56.296Z,6.63
2022-12-19T20:42:29.436Z,4.68
2022-12-19T20:44:02.953Z,3.85
2022-12-19T20:45:36.289Z,4.85
2022-12-19T20:47:09.506Z,6.15
2022-12-19T20:48:43.416Z,4.68
2022-12-19T20:50:16.910Z,4.10
2022-12-19T20:51:50.290Z,5.20
2022-12-19T20:53:24.932Z,4.97
2022-12-19T20:54:58.121Z,4.85
2022-12-19T20:56:31.857Z,4.68
2022-12-19T20:58:05.365Z,5.10
2022-12-19T20:59:38.645Z,5.55
2022-12-19T21:01:14.206Z,4.32
2022-12-19T21:03:25.917Z,5.82
2022-12-19T21:04:40.905Z,4.22
2022-12-19T21:06:16.045Z,3.38
2022-12-19T21:07:49.327Z,4.03
2022-12-19T21:09:23.866Z,3.65
2022-12-19T21:10:58.752Z,3.65
2022-12-19T21:12:31.862Z,3.83
2022-12-19T21:14:19.682Z,6.15
2022-12-19T21:15:54.182Z,4.25
2022-12-19T21:17:27.442Z,3.78
2022-12-19T21:19:00.709Z,4.45
2022-12-19T21:20:35.976Z,4.00
2022-12-19T21:22:10.902Z,4.10
2022-12-19T21:23:44.996Z,4.65
2022-12-19T21:25:19.647Z,3.70
2022-12-19T21:26:57.796Z,4.38
2022-12-19T21:28:32.221Z,3.90
2022-12-19T21:30:06.759Z,3.40
2022-12-19T21:31:40.412Z,4.47
2022-12-19T21:33:14.077Z,3.15
2022-12-19T21:34:47.178Z,4.40
2022-12-19T21:36:23.215Z,3.05
2022-12-19T21:37:56.812Z,4.20
2022-12-19T21:39:30.155Z,4.45
2022-12-19T21:41:06.649Z,3.33
2022-12-19T21:42:39.963Z,4.43
2022-12-19T21:44:13.267Z,4.90
2022-12-19T21:45:46.581Z,3.22
2022-12-19T21:47:20.389Z,4.38
2022-12-19T21:48:56.609Z,3.53
2022-12-19T21:50:29.698Z,3.67
2022-12-19T21:52:02.793Z,3.70
2022-12-19T21:53:37.666Z,4.32
2022-12-19T21:55:11.440Z,3.38
2022-12-19T21:56:45.962Z,4.53
2022-12-19T21:58:19.183Z,6.00
2022-12-19T21:59:52.248Z,3.92
2022-12-19T22:01:26.344Z,4.65
2022-12-19T22:03:13.942Z,4.85
2022-12-19T22:04:50.062Z,3.47
2022-12-19T22:06:28.263Z,4.38
2022-12-19T22:08:01.763Z,4.22
2022-12-19T22:09:35.408Z,4.18
2022-12-19T22:11:18.116Z,3.08
2022-12-19T22:12:53.277Z,3.67
2022-12-19T22:14:26.988Z,4.50